sensor_id;sensor_type;location;lat;lon;timestamp;temperature;humidity
13148;DHT22;6639;50.956;4.242;2023-07-22T00:02:15;24.40;90.40
13148;DHT22;6639;50.956;4.242;2023-07-22T00:04:42;24.60;90.40
13148;DHT22;6639;50.956;4.242;2023-07-22T00:07:09;24.50;90.20
13148;DHT22;6639;50.956;4.242;2023-07-22T00:09:36;24.60;90.50
13148;DHT22;6639;50.956;4.242;2023-07-22T00:12:05;24.70;90.40
13148;DHT22;6639;50.956;4.242;2023-07-22T00:14:33;24.60;90.30
13148;DHT22;6639;50.956;4.242;2023-07-22T00:17:00;24.60;90.20
13148;DHT22;6639;50.956;4.242;2023-07-22T00:19:27;24.80;90.30
13148;DHT22;6639;50.956;4.242;2023-07-22T00:21:54;24.80;90.40
13148;DHT22;6639;50.956;4.242;2023-07-22T00:24:21;24.60;90.20
13148;DHT22;6639;50.956;4.242;2023-07-22T00:26:48;24.00;90.50
13148;DHT22;6639;50.956;4.242;2023-07-22T00:29:16;24.00;90.80
13148;DHT22;6639;50.956;4.242;2023-07-22T00:31:44;23.90;90.80
13148;DHT22;6639;50.956;4.242;2023-07-22T00:34:11;24.10;90.80
13148;DHT22;6639;50.956;4.242;2023-07-22T00:36:38;24.20;91.10
13148;DHT22;6639;50.956;4.242;2023-07-22T00:39:05;23.80;91.10
13148;DHT22;6639;50.956;4.242;2023-07-22T00:41:32;23.80;91.50
13148;DHT22;6639;50.956;4.242;2023-07-22T00:43:58;23.70;91.40
13148;DHT22;6639;50.956;4.242;2023-07-22T00:46:25;23.50;91.70
13148;DHT22;6639;50.956;4.242;2023-07-22T00:48:54;23.20;91.80
13148;DHT22;6639;50.956;4.242;2023-07-22T00:51:21;23.10;92.00
13148;DHT22;6639;50.956;4.242;2023-07-22T00:53:48;23.40;92.10
13148;DHT22;6639;50.956;4.242;2023-07-22T00:56:15;23.10;92.10
13148;DHT22;6639;50.956;4.242;2023-07-22T00:58:42;23.40;92.30
13148;DHT22;6639;50.956;4.242;2023-07-22T01:01:09;23.60;92.10
13148;DHT22;6639;50.956;4.242;2023-07-22T01:03:36;23.70;91.90
13148;DHT22;6639;50.956;4.242;2023-07-22T01:06:04;23.90;91.70
13148;DHT22;6639;50.956;4.242;2023-07-22T01:08:32;23.60;91.80
13148;DHT22;6639;50.956;4.242;2023-07-22T01:10:59;23.60;92.00
13148;DHT22;6639;50.956;4.242;2023-07-22T01:13:25;23.50;92.00
13148;DHT22;6639;50.956;4.242;2023-07-22T01:15:53;23.50;92.10
13148;DHT22;6639;50.956;4.242;2023-07-22T01:18:20;23.40;92.10
13148;DHT22;6639;50.956;4.242;2023-07-22T01:20:47;23.30;92.40
13148;DHT22;6639;50.956;4.242;2023-07-22T01:23:15;23.40;92.30
13148;DHT22;6639;50.956;4.242;2023-07-22T01:25:43;23.30;92.40
13148;DHT22;6639;50.956;4.242;2023-07-22T01:28:10;23.40;92.30
13148;DHT22;6639;50.956;4.242;2023-07-22T01:30:37;23.40;92.10
13148;DHT22;6639;50.956;4.242;2023-07-22T01:33:05;23.50;92.10
13148;DHT22;6639;50.956;4.242;2023-07-22T01:35:32;23.60;92.30
13148;DHT22;6639;50.956;4.242;2023-07-22T01:37:59;23.80;92.40
13148;DHT22;6639;50.956;4.242;2023-07-22T01:40:27;23.90;92.40
13148;DHT22;6639;50.956;4.242;2023-07-22T01:42:54;23.80;92.20
13148;DHT22;6639;50.956;4.242;2023-07-22T01:45:21;23.80;92.30
13148;DHT22;6639;50.956;4.242;2023-07-22T01:47:48;23.60;92.60
13148;DHT22;6639;50.956;4.242;2023-07-22T01:50:15;23.70;92.40
13148;DHT22;6639;50.956;4.242;2023-07-22T01:52:44;23.80;92.20
13148;DHT22;6639;50.956;4.242;2023-07-22T01:55:12;23.70;92.30
13148;DHT22;6639;50.956;4.242;2023-07-22T01:57:41;23.80;92.30
13148;DHT22;6639;50.956;4.242;2023-07-22T02:00:09;23.90;92.20
13148;DHT22;6639;50.956;4.242;2023-07-22T02:02:36;23.90;92.10
13148;DHT22;6639;50.956;4.242;2023-07-22T02:05:04;24.00;92.20
13148;DHT22;6639;50.956;4.242;2023-07-22T02:07:31;23.90;92.20
13148;DHT22;6639;50.956;4.242;2023-07-22T02:09:58;23.80;92.20
13148;DHT22;6639;50.956;4.242;2023-07-22T02:12:25;23.80;92.20
13148;DHT22;6639;50.956;4.242;2023-07-22T02:14:54;23.80;92.30
13148;DHT22;6639;50.956;4.242;2023-07-22T02:17:21;23.90;92.30
13148;DHT22;6639;50.956;4.242;2023-07-22T02:19:49;23.90;92.10
13148;DHT22;6639;50.956;4.242;2023-07-22T02:22:16;23.60;92.30
13148;DHT22;6639;50.956;4.242;2023-07-22T02:24:43;23.60;92.60
13148;DHT22;6639;50.956;4.242;2023-07-22T02:27:10;23.60;92.60
13148;DHT22;6639;50.956;4.242;2023-07-22T02:29:37;23.50;92.50
13148;DHT22;6639;50.956;4.242;2023-07-22T02:32:06;23.20;92.90
13148;DHT22;6639;50.956;4.242;2023-07-22T02:34:34;23.40;93.00
13148;DHT22;6639;50.956;4.242;2023-07-22T02:37:01;23.10;93.00
13148;DHT22;6639;50.956;4.242;2023-07-22T02:39:28;23.40;93.10
13148;DHT22;6639;50.956;4.242;2023-07-22T02:41:54;23.50;92.90
13148;DHT22;6639;50.956;4.242;2023-07-22T02:44:21;23.20;93.20
13148;DHT22;6639;50.956;4.242;2023-07-22T02:46:48;23.00;93.30
13148;DHT22;6639;50.956;4.242;2023-07-22T02:49:17;23.10;93.60
13148;DHT22;6639;50.956;4.242;2023-07-22T02:51:44;23.20;93.50
13148;DHT22;6639;50.956;4.242;2023-07-22T02:54:10;23.00;93.60
13148;DHT22;6639;50.956;4.242;2023-07-22T02:56:37;23.00;93.70
13148;DHT22;6639;50.956;4.242;2023-07-22T02:59:04;22.80;93.80
13148;DHT22;6639;50.956;4.242;2023-07-22T03:01:32;23.00;93.80
13148;DHT22;6639;50.956;4.242;2023-07-22T03:03:59;23.00;93.70
13148;DHT22;6639;50.956;4.242;2023-07-22T03:06:27;23.00;93.60
13148;DHT22;6639;50.956;4.242;2023-07-22T03:08:54;22.90;93.90
13148;DHT22;6639;50.956;4.242;2023-07-22T03:11:23;22.80;94.00
13148;DHT22;6639;50.956;4.242;2023-07-22T03:13:50;22.80;94.20
13148;DHT22;6639;50.956;4.242;2023-07-22T03:16:17;22.90;94.10
13148;DHT22;6639;50.956;4.242;2023-07-22T03:18:44;22.60;94.20
13148;DHT22;6639;50.956;4.242;2023-07-22T03:21:11;22.50;94.30
13148;DHT22;6639;50.956;4.242;2023-07-22T03:23:39;22.30;94.50
13148;DHT22;6639;50.956;4.242;2023-07-22T03:26:06;22.50;94.50
13148;DHT22;6639;50.956;4.242;2023-07-22T03:28:33;22.60;94.30
13148;DHT22;6639;50.956;4.242;2023-07-22T03:31:00;22.40;94.80
13148;DHT22;6639;50.956;4.242;2023-07-22T03:33:27;22.60;94.50
13148;DHT22;6639;50.956;4.242;2023-07-22T03:35:54;22.30;94.60
13148;DHT22;6639;50.956;4.242;2023-07-22T03:38:21;22.30;94.90
13148;DHT22;6639;50.956;4.242;2023-07-22T03:40:49;22.40;94.80
13148;DHT22;6639;50.956;4.242;2023-07-22T03:43:18;22.50;94.80
13148;DHT22;6639;50.956;4.242;2023-07-22T03:45:45;22.40;94.80
13148;DHT22;6639;50.956;4.242;2023-07-22T03:48:12;22.40;95.40
13148;DHT22;6639;50.956;4.242;2023-07-22T03:50:39;22.40;95.10
13148;DHT22;6639;50.956;4.242;2023-07-22T03:53:06;22.30;95.10
13148;DHT22;6639;50.956;4.242;2023-07-22T03:55:33;22.20;95.30
13148;DHT22;6639;50.956;4.242;2023-07-22T03:58:01;22.00;95.50
13148;DHT22;6639;50.956;4.242;2023-07-22T04:00:28;22.10;95.80
13148;DHT22;6639;50.956;4.242;2023-07-22T04:02:55;22.00;96.00
13148;DHT22;6639;50.956;4.242;2023-07-22T04:05:21;22.30;95.80
13148;DHT22;6639;50.956;4.242;2023-07-22T04:07:48;22.10;95.90
13148;DHT22;6639;50.956;4.242;2023-07-22T04:10:15;22.00;96.20
13148;DHT22;6639;50.956;4.242;2023-07-22T04:12:42;22.10;96.30
13148;DHT22;6639;50.956;4.242;2023-07-22T04:15:11;22.20;96.10
13148;DHT22;6639;50.956;4.242;2023-07-22T04:17:38;22.00;96.50
13148;DHT22;6639;50.956;4.242;2023-07-22T04:20:06;21.90;96.80
13148;DHT22;6639;50.956;4.242;2023-07-22T04:22:34;22.00;96.80
13148;DHT22;6639;50.956;4.242;2023-07-22T04:25:01;22.10;96.80
13148;DHT22;6639;50.956;4.242;2023-07-22T04:27:28;22.30;96.60
13148;DHT22;6639;50.956;4.242;2023-07-22T04:29:55;22.40;96.40
13148;DHT22;6639;50.956;4.242;2023-07-22T04:32:23;22.50;96.40
13148;DHT22;6639;50.956;4.242;2023-07-22T04:34:50;22.50;96.30
13148;DHT22;6639;50.956;4.242;2023-07-22T04:37:17;22.30;96.60
13148;DHT22;6639;50.956;4.242;2023-07-22T04:39:48;22.50;96.80
13148;DHT22;6639;50.956;4.242;2023-07-22T04:42:15;22.50;96.80
13148;DHT22;6639;50.956;4.242;2023-07-22T04:44:42;22.60;96.70
13148;DHT22;6639;50.956;4.242;2023-07-22T04:47:09;22.60;96.80
13148;DHT22;6639;50.956;4.242;2023-07-22T04:49:38;22.70;96.70
13148;DHT22;6639;50.956;4.242;2023-07-22T04:52:07;22.60;96.80
13148;DHT22;6639;50.956;4.242;2023-07-22T04:54:33;22.50;96.80
13148;DHT22;6639;50.956;4.242;2023-07-22T04:57:00;22.10;96.80
13148;DHT22;6639;50.956;4.242;2023-07-22T04:59:28;22.10;97.60
13148;DHT22;6639;50.956;4.242;2023-07-22T05:01:55;22.10;97.60
13148;DHT22;6639;50.956;4.242;2023-07-22T05:04:22;22.20;97.60
13148;DHT22;6639;50.956;4.242;2023-07-22T05:06:51;22.30;98.00
13148;DHT22;6639;50.956;4.242;2023-07-22T05:09:18;22.20;97.70
13148;DHT22;6639;50.956;4.242;2023-07-22T05:11:44;22.20;97.60
13148;DHT22;6639;50.956;4.242;2023-07-22T05:14:11;22.30;97.50
13148;DHT22;6639;50.956;4.242;2023-07-22T05:16:38;22.30;97.60
13148;DHT22;6639;50.956;4.242;2023-07-22T05:19:05;22.20;97.80
13148;DHT22;6639;50.956;4.242;2023-07-22T05:21:33;22.40;97.80
13148;DHT22;6639;50.956;4.242;2023-07-22T05:24:02;22.50;97.80
13148;DHT22;6639;50.956;4.242;2023-07-22T05:26:29;22.20;98.00
13148;DHT22;6639;50.956;4.242;2023-07-22T05:28:56;22.30;98.30
13148;DHT22;6639;50.956;4.242;2023-07-22T05:31:23;22.00;98.20
13148;DHT22;6639;50.956;4.242;2023-07-22T05:33:50;22.00;98.70
13148;DHT22;6639;50.956;4.242;2023-07-22T05:36:17;22.10;99.10
13148;DHT22;6639;50.956;4.242;2023-07-22T05:38:44;22.00;99.00
13148;DHT22;6639;50.956;4.242;2023-07-22T05:41:12;22.20;99.40
13148;DHT22;6639;50.956;4.242;2023-07-22T05:43:39;22.10;99.10
13148;DHT22;6639;50.956;4.242;2023-07-22T05:46:06;22.40;99.10
13148;DHT22;6639;50.956;4.242;2023-07-22T05:48:33;22.90;98.70
13148;DHT22;6639;50.956;4.242;2023-07-22T05:51:00;23.00;98.20
13148;DHT22;6639;50.956;4.242;2023-07-22T05:53:27;22.70;98.20
13148;DHT22;6639;50.956;4.242;2023-07-22T05:55:54;22.60;98.50
13148;DHT22;6639;50.956;4.242;2023-07-22T05:58:22;22.40;98.90
13148;DHT22;6639;50.956;4.242;2023-07-22T06:00:49;22.50;99.10
13148;DHT22;6639;50.956;4.242;2023-07-22T06:03:17;23.00;98.70
13148;DHT22;6639;50.956;4.242;2023-07-22T06:05:44;23.20;98.70
13148;DHT22;6639;50.956;4.242;2023-07-22T06:08:11;23.40;97.90
13148;DHT22;6639;50.956;4.242;2023-07-22T06:10:39;23.00;98.30
13148;DHT22;6639;50.956;4.242;2023-07-22T06:13:06;22.70;99.20
13148;DHT22;6639;50.956;4.242;2023-07-22T06:15:34;23.10;98.80
13148;DHT22;6639;50.956;4.242;2023-07-22T06:18:01;23.00;98.70
13148;DHT22;6639;50.956;4.242;2023-07-22T06:20:29;22.90;98.70
13148;DHT22;6639;50.956;4.242;2023-07-22T06:22:56;23.30;98.60
13148;DHT22;6639;50.956;4.242;2023-07-22T06:25:23;23.20;98.80
13148;DHT22;6639;50.956;4.242;2023-07-22T06:27:50;23.10;98.50
13148;DHT22;6639;50.956;4.242;2023-07-22T06:30:19;23.00;98.70
13148;DHT22;6639;50.956;4.242;2023-07-22T06:32:47;22.80;98.70
13148;DHT22;6639;50.956;4.242;2023-07-22T06:35:14;22.70;99.20
13148;DHT22;6639;50.956;4.242;2023-07-22T06:37:41;22.90;99.40
13148;DHT22;6639;50.956;4.242;2023-07-22T06:40:09;23.00;99.10
13148;DHT22;6639;50.956;4.242;2023-07-22T06:42:36;22.80;99.20
13148;DHT22;6639;50.956;4.242;2023-07-22T06:45:04;22.60;99.90
13148;DHT22;6639;50.956;4.242;2023-07-22T06:47:31;22.90;99.80
13148;DHT22;6639;50.956;4.242;2023-07-22T06:49:59;23.00;99.80
13148;DHT22;6639;50.956;4.242;2023-07-22T06:52:26;23.00;99.70
13148;DHT22;6639;50.956;4.242;2023-07-22T06:54:53;23.20;99.40
13148;DHT22;6639;50.956;4.242;2023-07-22T06:57:20;23.20;99.10
13148;DHT22;6639;50.956;4.242;2023-07-22T06:59:47;23.50;99.00
13148;DHT22;6639;50.956;4.242;2023-07-22T07:02:16;23.30;99.40
13148;DHT22;6639;50.956;4.242;2023-07-22T07:04:43;23.60;99.50
13148;DHT22;6639;50.956;4.242;2023-07-22T07:07:12;23.20;99.50
13148;DHT22;6639;50.956;4.242;2023-07-22T07:09:39;23.10;99.50
13148;DHT22;6639;50.956;4.242;2023-07-22T07:12:07;23.00;99.80
13148;DHT22;6639;50.956;4.242;2023-07-22T07:14:34;23.30;99.50
13148;DHT22;6639;50.956;4.242;2023-07-22T07:17:02;23.30;99.30
13148;DHT22;6639;50.956;4.242;2023-07-22T07:19:29;23.30;99.20
13148;DHT22;6639;50.956;4.242;2023-07-22T07:21:55;23.00;99.30
13148;DHT22;6639;50.956;4.242;2023-07-22T07:24:24;23.00;99.60
13148;DHT22;6639;50.956;4.242;2023-07-22T07:26:52;22.80;99.70
13148;DHT22;6639;50.956;4.242;2023-07-22T07:29:19;22.90;99.90
13148;DHT22;6639;50.956;4.242;2023-07-22T07:31:46;23.20;99.90
13148;DHT22;6639;50.956;4.242;2023-07-22T07:34:13;23.10;99.90
13148;DHT22;6639;50.956;4.242;2023-07-22T07:36:40;23.10;99.80
13148;DHT22;6639;50.956;4.242;2023-07-22T07:39:07;23.00;99.60
13148;DHT22;6639;50.956;4.242;2023-07-22T07:41:35;22.90;99.80
13148;DHT22;6639;50.956;4.242;2023-07-22T07:44:03;22.60;99.90
13148;DHT22;6639;50.956;4.242;2023-07-22T07:46:30;22.60;99.90
13148;DHT22;6639;50.956;4.242;2023-07-22T07:48:59;22.50;99.90
13148;DHT22;6639;50.956;4.242;2023-07-22T07:51:28;23.00;99.90
13148;DHT22;6639;50.956;4.242;2023-07-22T07:53:55;23.10;99.90
13148;DHT22;6639;50.956;4.242;2023-07-22T07:56:23;23.10;99.90
13148;DHT22;6639;50.956;4.242;2023-07-22T07:58:53;23.10;99.90
13148;DHT22;6639;50.956;4.242;2023-07-22T08:01:20;23.50;99.90
13148;DHT22;6639;50.956;4.242;2023-07-22T08:03:47;23.80;99.90
13148;DHT22;6639;50.956;4.242;2023-07-22T08:06:14;23.90;99.90
13148;DHT22;6639;50.956;4.242;2023-07-22T08:08:41;23.90;99.80
13148;DHT22;6639;50.956;4.242;2023-07-22T08:11:10;23.90;99.90
13148;DHT22;6639;50.956;4.242;2023-07-22T08:13:39;23.60;99.90
13148;DHT22;6639;50.956;4.242;2023-07-22T08:16:09;23.70;99.90
13148;DHT22;6639;50.956;4.242;2023-07-22T08:18:36;23.70;99.90
13148;DHT22;6639;50.956;4.242;2023-07-22T08:21:05;23.80;99.90
13148;DHT22;6639;50.956;4.242;2023-07-22T08:23:33;24.10;99.90
13148;DHT22;6639;50.956;4.242;2023-07-22T08:26:00;24.40;99.80
13148;DHT22;6639;50.956;4.242;2023-07-22T08:28:27;24.40;99.10
13148;DHT22;6639;50.956;4.242;2023-07-22T08:30:54;24.60;99.10
13148;DHT22;6639;50.956;4.242;2023-07-22T08:33:23;24.30;99.00
13148;DHT22;6639;50.956;4.242;2023-07-22T08:35:51;24.20;99.10
13148;DHT22;6639;50.956;4.242;2023-07-22T08:38:18;24.60;99.10
13148;DHT22;6639;50.956;4.242;2023-07-22T08:40:48;24.80;98.80
13148;DHT22;6639;50.956;4.242;2023-07-22T08:43:16;24.90;98.50
13148;DHT22;6639;50.956;4.242;2023-07-22T08:45:47;24.90;98.50
13148;DHT22;6639;50.956;4.242;2023-07-22T08:48:16;25.00;98.00
13148;DHT22;6639;50.956;4.242;2023-07-22T08:50:49;25.30;97.80
13148;DHT22;6639;50.956;4.242;2023-07-22T08:53:17;25.30;97.30
13148;DHT22;6639;50.956;4.242;2023-07-22T08:55:45;25.50;97.60
13148;DHT22;6639;50.956;4.242;2023-07-22T08:58:14;25.70;97.50
13148;DHT22;6639;50.956;4.242;2023-07-22T09:00:41;26.10;96.50
13148;DHT22;6639;50.956;4.242;2023-07-22T09:03:08;26.00;96.20
13148;DHT22;6639;50.956;4.242;2023-07-22T09:05:36;25.60;96.50
13148;DHT22;6639;50.956;4.242;2023-07-22T09:08:07;25.60;96.90
13148;DHT22;6639;50.956;4.242;2023-07-22T09:10:34;26.20;96.50
13148;DHT22;6639;50.956;4.242;2023-07-22T09:13:01;26.60;95.60
13148;DHT22;6639;50.956;4.242;2023-07-22T09:15:28;26.20;95.10
13148;DHT22;6639;50.956;4.242;2023-07-22T09:17:55;26.50;96.00
13148;DHT22;6639;50.956;4.242;2023-07-22T09:20:22;26.60;95.20
13148;DHT22;6639;50.956;4.242;2023-07-22T09:22:50;26.60;94.60
13148;DHT22;6639;50.956;4.242;2023-07-22T09:25:20;26.30;94.60
13148;DHT22;6639;50.956;4.242;2023-07-22T09:27:48;26.30;94.40
13148;DHT22;6639;50.956;4.242;2023-07-22T09:30:24;26.20;94.60
13148;DHT22;6639;50.956;4.242;2023-07-22T09:32:51;26.70;94.40
13148;DHT22;6639;50.956;4.242;2023-07-22T09:35:19;26.80;93.80
13148;DHT22;6639;50.956;4.242;2023-07-22T09:37:46;26.60;93.20
13148;DHT22;6639;50.956;4.242;2023-07-22T09:40:25;26.50;93.00
13148;DHT22;6639;50.956;4.242;2023-07-22T09:42:53;26.90;93.40
13148;DHT22;6639;50.956;4.242;2023-07-22T09:45:22;27.00;92.70
13148;DHT22;6639;50.956;4.242;2023-07-22T09:47:51;27.50;92.40
13148;DHT22;6639;50.956;4.242;2023-07-22T09:50:20;27.80;91.70
13148;DHT22;6639;50.956;4.242;2023-07-22T09:52:50;27.60;90.60
13148;DHT22;6639;50.956;4.242;2023-07-22T09:55:19;27.20;91.10
13148;DHT22;6639;50.956;4.242;2023-07-22T09:57:52;27.10;90.80
13148;DHT22;6639;50.956;4.242;2023-07-22T10:00:20;27.20;90.60
13148;DHT22;6639;50.956;4.242;2023-07-22T10:02:48;26.90;90.70
13148;DHT22;6639;50.956;4.242;2023-07-22T10:05:17;26.70;90.50
13148;DHT22;6639;50.956;4.242;2023-07-22T10:07:46;26.90;90.10
13148;DHT22;6639;50.956;4.242;2023-07-22T10:10:15;26.90;88.80
13148;DHT22;6639;50.956;4.242;2023-07-22T10:12:43;26.70;89.60
13148;DHT22;6639;50.956;4.242;2023-07-22T10:15:13;26.50;90.90
13148;DHT22;6639;50.956;4.242;2023-07-22T10:17:40;27.00;90.10
13148;DHT22;6639;50.956;4.242;2023-07-22T10:20:08;26.70;89.80
13148;DHT22;6639;50.956;4.242;2023-07-22T10:22:38;26.80;89.20
13148;DHT22;6639;50.956;4.242;2023-07-22T10:25:06;26.80;88.50
13148;DHT22;6639;50.956;4.242;2023-07-22T10:27:34;27.00;88.90
13148;DHT22;6639;50.956;4.242;2023-07-22T10:30:02;27.30;86.70
13148;DHT22;6639;50.956;4.242;2023-07-22T10:32:35;27.20;86.50
13148;DHT22;6639;50.956;4.242;2023-07-22T10:35:03;27.10;88.30
13148;DHT22;6639;50.956;4.242;2023-07-22T10:37:31;27.30;87.70
13148;DHT22;6639;50.956;4.242;2023-07-22T10:40:16;27.30;85.60
13148;DHT22;6639;50.956;4.242;2023-07-22T10:42:54;27.40;86.40
13148;DHT22;6639;50.956;4.242;2023-07-22T10:45:27;27.50;87.40
13148;DHT22;6639;50.956;4.242;2023-07-22T10:48:03;27.50;85.30
13148;DHT22;6639;50.956;4.242;2023-07-22T10:50:42;26.60;84.70
13148;DHT22;6639;50.956;4.242;2023-07-22T10:53:10;26.50;86.90
13148;DHT22;6639;50.956;4.242;2023-07-22T10:56:03;26.90;87.50
13148;DHT22;6639;50.956;4.242;2023-07-22T10:58:31;27.00;87.30
13148;DHT22;6639;50.956;4.242;2023-07-22T11:01:22;27.10;87.40
13148;DHT22;6639;50.956;4.242;2023-07-22T11:04:09;27.20;86.10
13148;DHT22;6639;50.956;4.242;2023-07-22T11:06:38;26.90;85.60
13148;DHT22;6639;50.956;4.242;2023-07-22T11:09:05;26.80;86.50
13148;DHT22;6639;50.956;4.242;2023-07-22T11:11:36;26.80;87.10
13148;DHT22;6639;50.956;4.242;2023-07-22T11:14:14;26.90;85.80
13148;DHT22;6639;50.956;4.242;2023-07-22T11:16:42;26.80;85.70
13148;DHT22;6639;50.956;4.242;2023-07-22T11:19:13;27.10;89.70
13148;DHT22;6639;50.956;4.242;2023-07-22T11:21:40;27.30;88.60
13148;DHT22;6639;50.956;4.242;2023-07-22T11:24:08;27.60;85.90
13148;DHT22;6639;50.956;4.242;2023-07-22T11:26:35;27.20;83.90
13148;DHT22;6639;50.956;4.242;2023-07-22T11:29:03;27.10;86.40
13148;DHT22;6639;50.956;4.242;2023-07-22T11:31:31;27.50;85.50
13148;DHT22;6639;50.956;4.242;2023-07-22T11:33:58;27.30;84.80
13148;DHT22;6639;50.956;4.242;2023-07-22T11:36:27;27.80;86.10
13148;DHT22;6639;50.956;4.242;2023-07-22T11:38:54;27.90;83.40
13148;DHT22;6639;50.956;4.242;2023-07-22T11:41:21;28.00;85.20
13148;DHT22;6639;50.956;4.242;2023-07-22T11:43:48;28.30;83.60
13148;DHT22;6639;50.956;4.242;2023-07-22T11:46:15;28.00;82.00
13148;DHT22;6639;50.956;4.242;2023-07-22T11:48:49;27.50;82.30
13148;DHT22;6639;50.956;4.242;2023-07-22T11:51:18;27.50;81.70
13148;DHT22;6639;50.956;4.242;2023-07-22T11:53:48;27.60;82.50
13148;DHT22;6639;50.956;4.242;2023-07-22T11:56:20;27.90;82.90
13148;DHT22;6639;50.956;4.242;2023-07-22T11:58:51;28.30;82.30
13148;DHT22;6639;50.956;4.242;2023-07-22T12:01:19;28.30;80.00
13148;DHT22;6639;50.956;4.242;2023-07-22T12:03:47;28.30;80.20
13148;DHT22;6639;50.956;4.242;2023-07-22T12:06:15;28.40;79.50
13148;DHT22;6639;50.956;4.242;2023-07-22T12:08:47;28.40;79.10
13148;DHT22;6639;50.956;4.242;2023-07-22T12:11:18;28.20;80.20
13148;DHT22;6639;50.956;4.242;2023-07-22T12:13:45;28.10;80.10
13148;DHT22;6639;50.956;4.242;2023-07-22T12:16:21;28.20;79.20
13148;DHT22;6639;50.956;4.242;2023-07-22T12:18:49;28.20;80.40
13148;DHT22;6639;50.956;4.242;2023-07-22T12:21:16;28.60;80.70
13148;DHT22;6639;50.956;4.242;2023-07-22T12:23:43;28.70;79.70
13148;DHT22;6639;50.956;4.242;2023-07-22T12:26:11;28.90;77.70
13148;DHT22;6639;50.956;4.242;2023-07-22T12:28:38;28.90;78.80
13148;DHT22;6639;50.956;4.242;2023-07-22T12:31:05;28.90;79.50
13148;DHT22;6639;50.956;4.242;2023-07-22T12:33:32;28.80;79.20
13148;DHT22;6639;50.956;4.242;2023-07-22T12:35:59;28.70;79.00
13148;DHT22;6639;50.956;4.242;2023-07-22T12:38:26;29.00;78.90
13148;DHT22;6639;50.956;4.242;2023-07-22T12:40:53;28.90;78.10
13148;DHT22;6639;50.956;4.242;2023-07-22T12:43:21;29.10;77.30
13148;DHT22;6639;50.956;4.242;2023-07-22T12:45:48;29.10;77.30
13148;DHT22;6639;50.956;4.242;2023-07-22T12:48:16;28.70;77.20
13148;DHT22;6639;50.956;4.242;2023-07-22T12:50:43;28.50;77.20
13148;DHT22;6639;50.956;4.242;2023-07-22T12:53:10;28.70;78.20
13148;DHT22;6639;50.956;4.242;2023-07-22T12:55:37;28.30;78.40
13148;DHT22;6639;50.956;4.242;2023-07-22T12:58:04;27.80;78.60
13148;DHT22;6639;50.956;4.242;2023-07-22T13:00:32;27.60;78.80
13148;DHT22;6639;50.956;4.242;2023-07-22T13:02:59;27.10;80.00
13148;DHT22;6639;50.956;4.242;2023-07-22T13:05:26;27.10;80.80
13148;DHT22;6639;50.956;4.242;2023-07-22T13:07:52;27.00;81.00
13148;DHT22;6639;50.956;4.242;2023-07-22T13:10:20;27.10;81.40
13148;DHT22;6639;50.956;4.242;2023-07-22T13:12:48;27.20;81.50
13148;DHT22;6639;50.956;4.242;2023-07-22T13:15:15;27.30;81.60
13148;DHT22;6639;50.956;4.242;2023-07-22T13:17:43;27.20;81.10
13148;DHT22;6639;50.956;4.242;2023-07-22T13:20:11;27.10;81.40
13148;DHT22;6639;50.956;4.242;2023-07-22T13:22:38;26.80;82.10
13148;DHT22;6639;50.956;4.242;2023-07-22T13:25:06;26.80;82.70
13148;DHT22;6639;50.956;4.242;2023-07-22T13:27:34;27.00;81.60
13148;DHT22;6639;50.956;4.242;2023-07-22T13:30:04;27.10;82.90
13148;DHT22;6639;50.956;4.242;2023-07-22T13:32:32;27.40;81.80
13148;DHT22;6639;50.956;4.242;2023-07-22T13:35:00;27.50;82.40
13148;DHT22;6639;50.956;4.242;2023-07-22T13:37:27;27.50;82.20
13148;DHT22;6639;50.956;4.242;2023-07-22T13:39:54;27.10;81.80
13148;DHT22;6639;50.956;4.242;2023-07-22T13:42:23;27.40;83.30
13148;DHT22;6639;50.956;4.242;2023-07-22T13:44:50;27.20;83.50
13148;DHT22;6639;50.956;4.242;2023-07-22T13:47:16;26.90;85.00
13148;DHT22;6639;50.956;4.242;2023-07-22T13:49:43;26.90;85.80
13148;DHT22;6639;50.956;4.242;2023-07-22T13:52:12;27.00;85.20
13148;DHT22;6639;50.956;4.242;2023-07-22T13:54:39;26.80;85.50
13148;DHT22;6639;50.956;4.242;2023-07-22T13:57:06;26.80;86.10
13148;DHT22;6639;50.956;4.242;2023-07-22T13:59:33;26.70;86.10
13148;DHT22;6639;50.956;4.242;2023-07-22T14:02:00;26.70;86.40
13148;DHT22;6639;50.956;4.242;2023-07-22T14:04:28;26.80;85.80
13148;DHT22;6639;50.956;4.242;2023-07-22T14:06:55;26.80;86.10
13148;DHT22;6639;50.956;4.242;2023-07-22T14:09:24;26.80;86.70
13148;DHT22;6639;50.956;4.242;2023-07-22T14:11:51;26.80;86.90
13148;DHT22;6639;50.956;4.242;2023-07-22T14:14:17;26.60;87.00
13148;DHT22;6639;50.956;4.242;2023-07-22T14:16:45;26.30;87.30
13148;DHT22;6639;50.956;4.242;2023-07-22T14:19:12;26.20;88.10
13148;DHT22;6639;50.956;4.242;2023-07-22T14:21:39;26.50;88.60
13148;DHT22;6639;50.956;4.242;2023-07-22T14:24:05;26.80;87.70
13148;DHT22;6639;50.956;4.242;2023-07-22T14:26:34;26.80;88.00
13148;DHT22;6639;50.956;4.242;2023-07-22T14:29:01;26.30;87.30
13148;DHT22;6639;50.956;4.242;2023-07-22T14:31:28;26.40;87.40
13148;DHT22;6639;50.956;4.242;2023-07-22T14:33:55;26.30;87.60
13148;DHT22;6639;50.956;4.242;2023-07-22T14:36:22;26.60;87.60
13148;DHT22;6639;50.956;4.242;2023-07-22T14:38:49;26.30;86.70
13148;DHT22;6639;50.956;4.242;2023-07-22T14:41:16;26.00;87.10
13148;DHT22;6639;50.956;4.242;2023-07-22T14:43:45;26.10;87.50
13148;DHT22;6639;50.956;4.242;2023-07-22T14:46:12;26.10;87.70
13148;DHT22;6639;50.956;4.242;2023-07-22T14:48:39;26.50;87.80
13148;DHT22;6639;50.956;4.242;2023-07-22T14:51:06;26.10;87.00
13148;DHT22;6639;50.956;4.242;2023-07-22T14:53:33;25.90;88.00
13148;DHT22;6639;50.956;4.242;2023-07-22T14:56:00;26.00;88.50
13148;DHT22;6639;50.956;4.242;2023-07-22T14:58:26;26.10;86.90
13148;DHT22;6639;50.956;4.242;2023-07-22T15:00:55;25.90;86.80
13148;DHT22;6639;50.956;4.242;2023-07-22T15:03:22;25.80;87.30
13148;DHT22;6639;50.956;4.242;2023-07-22T15:05:49;26.20;87.20
13148;DHT22;6639;50.956;4.242;2023-07-22T15:08:15;26.10;87.00
13148;DHT22;6639;50.956;4.242;2023-07-22T15:10:42;26.10;86.50
13148;DHT22;6639;50.956;4.242;2023-07-22T15:13:09;26.00;86.20
13148;DHT22;6639;50.956;4.242;2023-07-22T15:15:36;26.30;86.20
13148;DHT22;6639;50.956;4.242;2023-07-22T15:18:04;26.20;85.90
13148;DHT22;6639;50.956;4.242;2023-07-22T15:20:31;26.00;85.60
13148;DHT22;6639;50.956;4.242;2023-07-22T15:22:58;26.00;86.50
13148;DHT22;6639;50.956;4.242;2023-07-22T15:25:26;26.00;86.20
13148;DHT22;6639;50.956;4.242;2023-07-22T15:27:53;26.40;86.30
13148;DHT22;6639;50.956;4.242;2023-07-22T15:30:19;26.90;86.10
13148;DHT22;6639;50.956;4.242;2023-07-22T15:32:46;27.20;85.80
13148;DHT22;6639;50.956;4.242;2023-07-22T15:35:15;27.20;85.00
13148;DHT22;6639;50.956;4.242;2023-07-22T15:37:42;27.30;84.10
13148;DHT22;6639;50.956;4.242;2023-07-22T15:40:09;27.30;83.70
13148;DHT22;6639;50.956;4.242;2023-07-22T15:42:36;27.10;83.50
13148;DHT22;6639;50.956;4.242;2023-07-22T15:45:03;26.80;83.60
13148;DHT22;6639;50.956;4.242;2023-07-22T15:47:30;26.50;83.90
13148;DHT22;6639;50.956;4.242;2023-07-22T15:49:57;26.30;84.90